sensor_id;sensor_type;location;lat;lon;timestamp;temperature;humidity
62339;DHT22;48368;53.406;6.214;2023-02-04T00:01:28;7.30;99.90
62339;DHT22;48368;53.406;6.214;2023-02-04T00:03:54;7.30;99.90
62339;DHT22;48368;53.406;6.214;2023-02-04T00:06:19;7.40;99.90
62339;DHT22;48368;53.406;6.214;2023-02-04T00:08:45;7.40;99.90
62339;DHT22;48368;53.406;6.214;2023-02-04T00:11:11;7.30;99.90
62339;DHT22;48368;53.406;6.214;2023-02-04T00:13:36;7.30;99.90
62339;DHT22;48368;53.406;6.214;2023-02-04T00:16:02;7.30;99.90
62339;DHT22;48368;53.406;6.214;2023-02-04T00:18:28;7.30;99.90
62339;DHT22;48368;53.406;6.214;2023-02-04T00:20:54;7.30;99.90
62339;DHT22;48368;53.406;6.214;2023-02-04T00:23:19;7.30;99.90
62339;DHT22;48368;53.406;6.214;2023-02-04T00:25:45;7.30;99.90
62339;DHT22;48368;53.406;6.214;2023-02-04T00:28:11;7.30;99.90
62339;DHT22;48368;53.406;6.214;2023-02-04T00:30:36;7.30;99.90
62339;DHT22;48368;53.406;6.214;2023-02-04T00:33:02;7.30;99.90
62339;DHT22;48368;53.406;6.214;2023-02-04T00:35:28;7.30;99.90
62339;DHT22;48368;53.406;6.214;2023-02-04T00:37:53;7.30;99.90
62339;DHT22;48368;53.406;6.214;2023-02-04T00:40:19;7.30;99.90
62339;DHT22;48368;53.406;6.214;2023-02-04T00:42:45;7.30;99.90
62339;DHT22;48368;53.406;6.214;2023-02-04T00:45:11;7.30;99.90
62339;DHT22;48368;53.406;6.214;2023-02-04T00:47:38;7.30;99.90
62339;DHT22;48368;53.406;6.214;2023-02-04T00:50:04;7.30;99.90
62339;DHT22;48368;53.406;6.214;2023-02-04T00:52:30;7.30;99.90
62339;DHT22;48368;53.406;6.214;2023-02-04T00:54:55;7.30;99.90
62339;DHT22;48368;53.406;6.214;2023-02-04T00:57:21;7.30;99.90
62339;DHT22;48368;53.406;6.214;2023-02-04T00:59:47;7.20;99.90
62339;DHT22;48368;53.406;6.214;2023-02-04T01:02:12;7.20;99.90
62339;DHT22;48368;53.406;6.214;2023-02-04T01:04:38;7.30;99.90
62339;DHT22;48368;53.406;6.214;2023-02-04T01:07:04;7.30;99.90
62339;DHT22;48368;53.406;6.214;2023-02-04T01:09:32;7.40;99.90
62339;DHT22;48368;53.406;6.214;2023-02-04T01:11:58;7.30;99.90
62339;DHT22;48368;53.406;6.214;2023-02-04T01:14:24;7.30;99.90
62339;DHT22;48368;53.406;6.214;2023-02-04T01:16:50;7.30;99.90
62339;DHT22;48368;53.406;6.214;2023-02-04T01:19:15;7.40;99.90
62339;DHT22;48368;53.406;6.214;2023-02-04T01:21:41;7.40;99.90
62339;DHT22;48368;53.406;6.214;2023-02-04T01:24:07;7.30;99.90
62339;DHT22;48368;53.406;6.214;2023-02-04T01:26:35;7.40;99.90
62339;DHT22;48368;53.406;6.214;2023-02-04T01:29:01;7.40;99.90
62339;DHT22;48368;53.406;6.214;2023-02-04T01:31:27;7.40;99.90
62339;DHT22;48368;53.406;6.214;2023-02-04T01:33:52;7.30;99.90
62339;DHT22;48368;53.406;6.214;2023-02-04T01:36:18;7.30;99.90
62339;DHT22;48368;53.406;6.214;2023-02-04T01:38:47;7.30;99.90
62339;DHT22;48368;53.406;6.214;2023-02-04T01:41:13;7.30;99.90
62339;DHT22;48368;53.406;6.214;2023-02-04T01:43:39;7.40;99.90
62339;DHT22;48368;53.406;6.214;2023-02-04T01:46:05;7.40;99.90
62339;DHT22;48368;53.406;6.214;2023-02-04T01:48:31;7.40;99.90
62339;DHT22;48368;53.406;6.214;2023-02-04T01:51:03;7.40;99.90
62339;DHT22;48368;53.406;6.214;2023-02-04T01:53:29;7.30;99.90
62339;DHT22;48368;53.406;6.214;2023-02-04T01:55:55;7.40;99.90
62339;DHT22;48368;53.406;6.214;2023-02-04T01:58:21;7.30;99.90
62339;DHT22;48368;53.406;6.214;2023-02-04T02:00:47;7.30;99.90
62339;DHT22;48368;53.406;6.214;2023-02-04T02:03:12;7.30;99.90
62339;DHT22;48368;53.406;6.214;2023-02-04T02:05:44;7.30;99.90
62339;DHT22;48368;53.406;6.214;2023-02-04T02:08:12;7.20;99.90
62339;DHT22;48368;53.406;6.214;2023-02-04T02:10:40;7.30;99.90
62339;DHT22;48368;53.406;6.214;2023-02-04T02:13:10;7.20;99.90
62339;DHT22;48368;53.406;6.214;2023-02-04T02:15:36;7.20;99.90
62339;DHT22;48368;53.406;6.214;2023-02-04T02:18:02;7.30;99.90
62339;DHT22;48368;53.406;6.214;2023-02-04T02:20:28;7.20;99.90
62339;DHT22;48368;53.406;6.214;2023-02-04T02:25:58;7.20;99.90
62339;DHT22;48368;53.406;6.214;2023-02-04T02:28:23;7.20;99.90
62339;DHT22;48368;53.406;6.214;2023-02-04T02:30:50;7.20;99.90
62339;DHT22;48368;53.406;6.214;2023-02-04T02:33:18;7.20;99.90
62339;DHT22;48368;53.406;6.214;2023-02-04T02:35:45;7.10;99.90
62339;DHT22;48368;53.406;6.214;2023-02-04T02:38:14;7.10;99.90
62339;DHT22;48368;53.406;6.214;2023-02-04T02:40:40;7.10;99.90
62339;DHT22;48368;53.406;6.214;2023-02-04T02:43:09;7.10;99.90
62339;DHT22;48368;53.406;6.214;2023-02-04T02:45:37;7.10;99.90
62339;DHT22;48368;53.406;6.214;2023-02-04T02:48:02;7.00;99.90
62339;DHT22;48368;53.406;6.214;2023-02-04T02:50:30;7.00;99.90
62339;DHT22;48368;53.406;6.214;2023-02-04T02:52:57;7.00;99.90
62339;DHT22;48368;53.406;6.214;2023-02-04T02:55:25;7.00;99.90
62339;DHT22;48368;53.406;6.214;2023-02-04T02:57:51;7.00;99.90
62339;DHT22;48368;53.406;6.214;2023-02-04T03:00:19;7.10;99.90
62339;DHT22;48368;53.406;6.214;2023-02-04T03:03:10;7.00;99.90
62339;DHT22;48368;53.406;6.214;2023-02-04T03:05:41;7.10;99.90
62339;DHT22;48368;53.406;6.214;2023-02-04T03:08:07;7.10;99.90
62339;DHT22;48368;53.406;6.214;2023-02-04T03:10:37;7.00;99.90
62339;DHT22;48368;53.406;6.214;2023-02-04T03:13:03;7.10;99.90
62339;DHT22;48368;53.406;6.214;2023-02-04T03:15:30;7.10;99.90
62339;DHT22;48368;53.406;6.214;2023-02-04T03:17:56;7.00;99.90
62339;DHT22;48368;53.406;6.214;2023-02-04T03:20:24;7.00;99.90
62339;DHT22;48368;53.406;6.214;2023-02-04T03:22:51;7.00;99.90
62339;DHT22;48368;53.406;6.214;2023-02-04T03:25:17;7.10;99.90
62339;DHT22;48368;53.406;6.214;2023-02-04T03:27:43;7.00;99.90
62339;DHT22;48368;53.406;6.214;2023-02-04T03:30:09;6.90;99.90
62339;DHT22;48368;53.406;6.214;2023-02-04T03:32:35;6.70;99.90
62339;DHT22;48368;53.406;6.214;2023-02-04T03:35:00;6.70;99.90
62339;DHT22;48368;53.406;6.214;2023-02-04T03:37:26;6.60;99.90
62339;DHT22;48368;53.406;6.214;2023-02-04T03:39:51;6.60;99.90
62339;DHT22;48368;53.406;6.214;2023-02-04T03:42:17;6.50;99.90
62339;DHT22;48368;53.406;6.214;2023-02-04T03:44:43;6.50;99.90
62339;DHT22;48368;53.406;6.214;2023-02-04T03:47:09;6.50;99.90
62339;DHT22;48368;53.406;6.214;2023-02-04T03:49:35;6.40;99.90
62339;DHT22;48368;53.406;6.214;2023-02-04T03:52:01;6.40;99.90
62339;DHT22;48368;53.406;6.214;2023-02-04T03:54:27;6.30;99.90
62339;DHT22;48368;53.406;6.214;2023-02-04T03:56:52;6.30;99.90
62339;DHT22;48368;53.406;6.214;2023-02-04T03:59:18;6.30;99.90
62339;DHT22;48368;53.406;6.214;2023-02-04T04:01:44;6.30;99.90
62339;DHT22;48368;53.406;6.214;2023-02-04T04:04:09;6.20;99.90
62339;DHT22;48368;53.406;6.214;2023-02-04T04:06:35;6.30;99.90
62339;DHT22;48368;53.406;6.214;2023-02-04T04:09:01;6.20;99.90
62339;DHT22;48368;53.406;6.214;2023-02-04T04:11:26;6.20;99.90
62339;DHT22;48368;53.406;6.214;2023-02-04T04:13:52;6.20;99.90
62339;DHT22;48368;53.406;6.214;2023-02-04T04:16:17;6.20;99.90
62339;DHT22;48368;53.406;6.214;2023-02-04T04:18:45;6.20;99.90
62339;DHT22;48368;53.406;6.214;2023-02-04T04:21:10;6.10;99.90
62339;DHT22;48368;53.406;6.214;2023-02-04T04:23:36;6.10;99.90
62339;DHT22;48368;53.406;6.214;2023-02-04T04:26:02;6.00;99.90
62339;DHT22;48368;53.406;6.214;2023-02-04T04:28:27;6.10;99.90
62339;DHT22;48368;53.406;6.214;2023-02-04T04:30:53;6.00;99.90
62339;DHT22;48368;53.406;6.214;2023-02-04T04:33:19;6.10;99.90
62339;DHT22;48368;53.406;6.214;2023-02-04T04:35:44;6.10;99.90
62339;DHT22;48368;53.406;6.214;2023-02-04T04:38:10;6.00;99.90
62339;DHT22;48368;53.406;6.214;2023-02-04T04:40:36;6.00;99.90
62339;DHT22;48368;53.406;6.214;2023-02-04T04:43:02;5.90;99.90
62339;DHT22;48368;53.406;6.214;2023-02-04T04:45:27;6.00;99.90
62339;DHT22;48368;53.406;6.214;2023-02-04T04:47:53;6.00;99.90
62339;DHT22;48368;53.406;6.214;2023-02-04T04:50:19;5.90;99.90
62339;DHT22;48368;53.406;6.214;2023-02-04T04:52:44;6.00;99.90
62339;DHT22;48368;53.406;6.214;2023-02-04T04:55:10;6.00;99.90
62339;DHT22;48368;53.406;6.214;2023-02-04T04:57:36;6.00;99.90
62339;DHT22;48368;53.406;6.214;2023-02-04T05:00:02;5.90;99.90
62339;DHT22;48368;53.406;6.214;2023-02-04T05:02:28;5.90;99.90
62339;DHT22;48368;53.406;6.214;2023-02-04T05:04:53;5.90;99.90
62339;DHT22;48368;53.406;6.214;2023-02-04T05:07:19;5.80;99.90
62339;DHT22;48368;53.406;6.214;2023-02-04T05:09:45;5.90;99.90
62339;DHT22;48368;53.406;6.214;2023-02-04T05:12:10;5.90;99.90
62339;DHT22;48368;53.406;6.214;2023-02-04T05:14:36;5.80;99.90
62339;DHT22;48368;53.406;6.214;2023-02-04T05:17:02;5.80;99.90
62339;DHT22;48368;53.406;6.214;2023-02-04T05:19:28;5.80;99.90
62339;DHT22;48368;53.406;6.214;2023-02-04T05:21:53;5.80;99.90
62339;DHT22;48368;53.406;6.214;2023-02-04T05:24:19;5.70;99.90
62339;DHT22;48368;53.406;6.214;2023-02-04T05:26:44;5.80;99.90
62339;DHT22;48368;53.406;6.214;2023-02-04T05:29:10;5.70;99.90
62339;DHT22;48368;53.406;6.214;2023-02-04T05:31:36;5.70;99.90
62339;DHT22;48368;53.406;6.214;2023-02-04T05:34:01;5.70;99.90
62339;DHT22;48368;53.406;6.214;2023-02-04T05:36:27;5.70;99.90
62339;DHT22;48368;53.406;6.214;2023-02-04T05:38:53;5.60;99.90
62339;DHT22;48368;53.406;6.214;2023-02-04T05:41:18;5.60;99.90
62339;DHT22;48368;53.406;6.214;2023-02-04T05:43:44;5.70;99.90
62339;DHT22;48368;53.406;6.214;2023-02-04T05:46:10;5.60;99.90
62339;DHT22;48368;53.406;6.214;2023-02-04T05:48:35;5.60;99.90
62339;DHT22;48368;53.406;6.214;2023-02-04T05:51:01;5.60;99.90
62339;DHT22;48368;53.406;6.214;2023-02-04T05:53:27;5.50;99.90
62339;DHT22;48368;53.406;6.214;2023-02-04T05:55:52;5.60;99.90
62339;DHT22;48368;53.406;6.214;2023-02-04T05:58:18;5.60;99.90
62339;DHT22;48368;53.406;6.214;2023-02-04T06:00:44;5.60;99.90
62339;DHT22;48368;53.406;6.214;2023-02-04T06:03:09;5.60;99.90
62339;DHT22;48368;53.406;6.214;2023-02-04T06:05:35;5.60;99.90
62339;DHT22;48368;53.406;6.214;2023-02-04T06:08:01;5.50;99.90
62339;DHT22;48368;53.406;6.214;2023-02-04T06:10:26;5.50;99.90
62339;DHT22;48368;53.406;6.214;2023-02-04T06:12:52;5.50;99.90
62339;DHT22;48368;53.406;6.214;2023-02-04T06:15:17;5.50;99.90
62339;DHT22;48368;53.406;6.214;2023-02-04T06:17:44;5.50;99.90
62339;DHT22;48368;53.406;6.214;2023-02-04T06:20:12;5.60;99.90
62339;DHT22;48368;53.406;6.214;2023-02-04T06:22:38;5.50;99.90
62339;DHT22;48368;53.406;6.214;2023-02-04T06:25:04;5.50;99.90
62339;DHT22;48368;53.406;6.214;2023-02-04T06:27:29;5.50;99.90
62339;DHT22;48368;53.406;6.214;2023-02-04T06:29:55;5.50;99.90
62339;DHT22;48368;53.406;6.214;2023-02-04T06:32:22;5.50;99.90
62339;DHT22;48368;53.406;6.214;2023-02-04T06:34:48;5.50;99.90
62339;DHT22;48368;53.406;6.214;2023-02-04T06:37:13;5.50;99.90
62339;DHT22;48368;53.406;6.214;2023-02-04T06:39:41;5.50;99.90
62339;DHT22;48368;53.406;6.214;2023-02-04T06:42:08;5.50;99.90
62339;DHT22;48368;53.406;6.214;2023-02-04T06:44:33;5.50;99.90
62339;DHT22;48368;53.406;6.214;2023-02-04T06:46:59;5.50;99.90
62339;DHT22;48368;53.406;6.214;2023-02-04T06:49:25;5.50;99.90
62339;DHT22;48368;53.406;6.214;2023-02-04T06:51:50;5.50;99.90
62339;DHT22;48368;53.406;6.214;2023-02-04T06:54:17;5.50;99.90
62339;DHT22;48368;53.406;6.214;2023-02-04T06:56:43;5.50;99.90
62339;DHT22;48368;53.406;6.214;2023-02-04T06:59:09;5.50;99.90
62339;DHT22;48368;53.406;6.214;2023-02-04T07:01:35;5.40;99.90
62339;DHT22;48368;53.406;6.214;2023-02-04T07:04:00;5.50;99.90
62339;DHT22;48368;53.406;6.214;2023-02-04T07:06:26;5.50;99.90
62339;DHT22;48368;53.406;6.214;2023-02-04T07:08:52;5.50;99.90
62339;DHT22;48368;53.406;6.214;2023-02-04T07:11:18;5.50;99.90
62339;DHT22;48368;53.406;6.214;2023-02-04T07:13:43;5.50;99.90
62339;DHT22;48368;53.406;6.214;2023-02-04T07:16:09;5.50;99.90
62339;DHT22;48368;53.406;6.214;2023-02-04T07:18:35;5.50;99.90
62339;DHT22;48368;53.406;6.214;2023-02-04T07:21:00;5.50;99.90
62339;DHT22;48368;53.406;6.214;2023-02-04T07:23:26;5.50;99.90
62339;DHT22;48368;53.406;6.214;2023-02-04T07:25:53;5.50;99.90
62339;DHT22;48368;53.406;6.214;2023-02-04T07:28:20;5.50;99.90
62339;DHT22;48368;53.406;6.214;2023-02-04T07:30:46;5.40;99.90
62339;DHT22;48368;53.406;6.214;2023-02-04T07:33:14;5.50;99.90
62339;DHT22;48368;53.406;6.214;2023-02-04T07:35:40;5.50;99.90
62339;DHT22;48368;53.406;6.214;2023-02-04T07:38:06;5.50;99.90
62339;DHT22;48368;53.406;6.214;2023-02-04T07:40:32;5.50;99.90
62339;DHT22;48368;53.406;6.214;2023-02-04T07:42:58;5.50;99.90
62339;DHT22;48368;53.406;6.214;2023-02-04T07:45:24;5.50;99.90
62339;DHT22;48368;53.406;6.214;2023-02-04T07:47:49;5.50;99.90
62339;DHT22;48368;53.406;6.214;2023-02-04T07:50:15;5.50;99.90
62339;DHT22;48368;53.406;6.214;2023-02-04T07:52:41;5.50;99.90
62339;DHT22;48368;53.406;6.214;2023-02-04T07:55:07;5.50;99.90
62339;DHT22;48368;53.406;6.214;2023-02-04T07:57:33;5.60;99.90
62339;DHT22;48368;53.406;6.214;2023-02-04T07:59:59;5.50;99.90
62339;DHT22;48368;53.406;6.214;2023-02-04T08:02:25;5.50;99.90
62339;DHT22;48368;53.406;6.214;2023-02-04T08:04:51;5.50;99.90
62339;DHT22;48368;53.406;6.214;2023-02-04T08:07:17;5.60;99.90
62339;DHT22;48368;53.406;6.214;2023-02-04T08:09:42;5.50;99.90
62339;DHT22;48368;53.406;6.214;2023-02-04T08:12:08;5.60;99.90
62339;DHT22;48368;53.406;6.214;2023-02-04T08:14:33;5.60;99.90
62339;DHT22;48368;53.406;6.214;2023-02-04T08:16:59;5.50;99.90
62339;DHT22;48368;53.406;6.214;2023-02-04T08:19:25;5.60;99.90
62339;DHT22;48368;53.406;6.214;2023-02-04T08:21:50;5.50;99.90
62339;DHT22;48368;53.406;6.214;2023-02-04T08:24:16;5.50;99.90
62339;DHT22;48368;53.406;6.214;2023-02-04T08:26:43;5.60;99.90
62339;DHT22;48368;53.406;6.214;2023-02-04T08:29:09;5.60;99.90
62339;DHT22;48368;53.406;6.214;2023-02-04T08:31:35;5.60;99.90
62339;DHT22;48368;53.406;6.214;2023-02-04T08:34:02;5.50;99.90
62339;DHT22;48368;53.406;6.214;2023-02-04T08:36:28;5.50;99.90
62339;DHT22;48368;53.406;6.214;2023-02-04T08:38:54;5.60;99.90
62339;DHT22;48368;53.406;6.214;2023-02-04T08:41:19;5.60;99.90
62339;DHT22;48368;53.406;6.214;2023-02-04T08:43:45;5.60;99.90
62339;DHT22;48368;53.406;6.214;2023-02-04T08:46:10;5.60;99.90
62339;DHT22;48368;53.406;6.214;2023-02-04T08:48:37;5.70;99.90
62339;DHT22;48368;53.406;6.214;2023-02-04T08:51:03;5.70;99.90
62339;DHT22;48368;53.406;6.214;2023-02-04T08:53:28;5.60;99.90
62339;DHT22;48368;53.406;6.214;2023-02-04T08:55:54;5.70;99.90
62339;DHT22;48368;53.406;6.214;2023-02-04T08:58:20;5.70;99.90
62339;DHT22;48368;53.406;6.214;2023-02-04T09:00:45;5.60;99.90
62339;DHT22;48368;53.406;6.214;2023-02-04T09:03:11;5.70;99.90
62339;DHT22;48368;53.406;6.214;2023-02-04T09:05:36;5.70;99.90
62339;DHT22;48368;53.406;6.214;2023-02-04T09:08:02;5.70;99.90
62339;DHT22;48368;53.406;6.214;2023-02-04T09:10:28;5.70;99.90
62339;DHT22;48368;53.406;6.214;2023-02-04T09:12:53;5.70;99.90
62339;DHT22;48368;53.406;6.214;2023-02-04T09:15:21;5.80;99.90
62339;DHT22;48368;53.406;6.214;2023-02-04T09:17:49;5.80;99.90
62339;DHT22;48368;53.406;6.214;2023-02-04T09:20:15;5.80;99.90
62339;DHT22;48368;53.406;6.214;2023-02-04T09:22:41;5.90;99.90
62339;DHT22;48368;53.406;6.214;2023-02-04T09:25:07;6.00;99.90
62339;DHT22;48368;53.406;6.214;2023-02-04T09:27:32;6.10;99.90
62339;DHT22;48368;53.406;6.214;2023-02-04T09:29:58;6.00;99.90
62339;DHT22;48368;53.406;6.214;2023-02-04T09:32:24;6.10;99.90
62339;DHT22;48368;53.406;6.214;2023-02-04T09:34:51;6.10;99.90
62339;DHT22;48368;53.406;6.214;2023-02-04T09:37:16;6.10;99.90
62339;DHT22;48368;53.406;6.214;2023-02-04T09:39:42;6.10;99.90
62339;DHT22;48368;53.406;6.214;2023-02-04T09:42:12;6.00;99.90
62339;DHT22;48368;53.406;6.214;2023-02-04T09:44:38;6.10;99.90
62339;DHT22;48368;53.406;6.214;2023-02-04T09:47:03;6.20;99.90
62339;DHT22;48368;53.406;6.214;2023-02-04T09:49:29;6.40;99.90
62339;DHT22;48368;53.406;6.214;2023-02-04T09:51:56;6.50;99.90
62339;DHT22;48368;53.406;6.214;2023-02-04T09:54:22;6.60;99.90
62339;DHT22;48368;53.406;6.214;2023-02-04T09:56:48;6.60;99.90
62339;DHT22;48368;53.406;6.214;2023-02-04T09:59:20;6.80;99.90
62339;DHT22;48368;53.406;6.214;2023-02-04T10:02:00;6.90;99.90
62339;DHT22;48368;53.406;6.214;2023-02-04T10:04:27;6.80;99.90
62339;DHT22;48368;53.406;6.214;2023-02-04T10:06:55;6.90;99.90
62339;DHT22;48368;53.406;6.214;2023-02-04T10:09:23;6.90;99.90
62339;DHT22;48368;53.406;6.214;2023-02-04T10:11:48;7.00;99.90
62339;DHT22;48368;53.406;6.214;2023-02-04T10:14:18;6.90;99.90
62339;DHT22;48368;53.406;6.214;2023-02-04T10:16:53;6.90;99.90
62339;DHT22;48368;53.406;6.214;2023-02-04T10:19:19;6.90;99.90
62339;DHT22;48368;53.406;6.214;2023-02-04T10:21:46;6.80;99.90
62339;DHT22;48368;53.406;6.214;2023-02-04T10:24:20;6.80;99.90
62339;DHT22;48368;53.406;6.214;2023-02-04T10:26:47;6.80;99.90
62339;DHT22;48368;53.406;6.214;2023-02-04T10:29:21;6.90;99.90
62339;DHT22;48368;53.406;6.214;2023-02-04T10:31:50;6.90;99.90
62339;DHT22;48368;53.406;6.214;2023-02-04T10:34:42;6.90;99.90
62339;DHT22;48368;53.406;6.214;2023-02-04T10:37:18;7.00;99.90
62339;DHT22;48368;53.406;6.214;2023-02-04T10:39:44;7.00;99.90
62339;DHT22;48368;53.406;6.214;2023-02-04T10:42:29;7.00;99.90
62339;DHT22;48368;53.406;6.214;2023-02-04T10:44:55;7.00;99.90
62339;DHT22;48368;53.406;6.214;2023-02-04T10:47:26;7.10;99.90
62339;DHT22;48368;53.406;6.214;2023-02-04T10:50:14;7.30;99.90
62339;DHT22;48368;53.406;6.214;2023-02-04T10:52:43;7.40;99.90
62339;DHT22;48368;53.406;6.214;2023-02-04T10:55:14;7.60;99.90
62339;DHT22;48368;53.406;6.214;2023-02-04T10:57:43;7.70;99.90
62339;DHT22;48368;53.406;6.214;2023-02-04T11:02:57;7.80;99.90
62339;DHT22;48368;53.406;6.214;2023-02-04T11:05:29;7.70;99.90
62339;DHT22;48368;53.406;6.214;2023-02-04T11:07:55;7.70;99.90
62339;DHT22;48368;53.406;6.214;2023-02-04T11:10:23;7.90;99.90
62339;DHT22;48368;53.406;6.214;2023-02-04T11:18:04;7.90;99.90
62339;DHT22;48368;53.406;6.214;2023-02-04T11:20:31;8.00;99.90
62339;DHT22;48368;53.406;6.214;2023-02-04T11:23:31;7.90;99.90
62339;DHT22;48368;53.406;6.214;2023-02-04T11:26:12;7.90;99.90
62339;DHT22;48368;53.406;6.214;2023-02-04T11:34:01;7.80;99.90
62339;DHT22;48368;53.406;6.214;2023-02-04T11:36:27;7.70;99.90
62339;DHT22;48368;53.406;6.214;2023-02-04T11:38:53;7.70;99.90
62339;DHT22;48368;53.406;6.214;2023-02-04T11:41:27;7.70;99.90
62339;DHT22;48368;53.406;6.214;2023-02-04T11:43:55;7.80;99.90
62339;DHT22;48368;53.406;6.214;2023-02-04T11:46:22;8.00;99.90
62339;DHT22;48368;53.406;6.214;2023-02-04T11:48:57;8.10;99.90
62339;DHT22;48368;53.406;6.214;2023-02-04T11:51:29;8.00;99.90
62339;DHT22;48368;53.406;6.214;2023-02-04T11:53:55;8.00;99.90
62339;DHT22;48368;53.406;6.214;2023-02-04T11:56:22;8.00;99.90
62339;DHT22;48368;53.406;6.214;2023-02-04T11:58:49;8.10;99.90
62339;DHT22;48368;53.406;6.214;2023-02-04T12:01:19;8.10;99.90
62339;DHT22;48368;53.406;6.214;2023-02-04T12:04:00;8.20;99.90
62339;DHT22;48368;53.406;6.214;2023-02-04T12:06:31;8.10;99.90
62339;DHT22;48368;53.406;6.214;2023-02-04T12:11:54;8.10;99.90
62339;DHT22;48368;53.406;6.214;2023-02-04T12:14:21;8.30;99.90
62339;DHT22;48368;53.406;6.214;2023-02-04T12:16:48;8.30;99.90
62339;DHT22;48368;53.406;6.214;2023-02-04T12:19:17;8.30;99.90
62339;DHT22;48368;53.406;6.214;2023-02-04T12:21:43;8.40;99.90
62339;DHT22;48368;53.406;6.214;2023-02-04T12:24:09;8.30;99.90
62339;DHT22;48368;53.406;6.214;2023-02-04T12:26:35;8.50;99.90
62339;DHT22;48368;53.406;6.214;2023-02-04T12:29:01;8.60;99.90
62339;DHT22;48368;53.406;6.214;2023-02-04T12:31:31;8.60;99.90
62339;DHT22;48368;53.406;6.214;2023-02-04T12:33:57;8.70;99.90
62339;DHT22;48368;53.406;6.214;2023-02-04T12:36:23;8.60;99.90
62339;DHT22;48368;53.406;6.214;2023-02-04T12:38:52;8.60;99.90
62339;DHT22;48368;53.406;6.214;2023-02-04T12:41:18;8.60;99.90
62339;DHT22;48368;53.406;6.214;2023-02-04T12:43:44;8.50;99.90
62339;DHT22;48368;53.406;6.214;2023-02-04T12:46:10;8.60;99.90
62339;DHT22;48368;53.406;6.214;2023-02-04T12:48:36;8.60;99.90
62339;DHT22;48368;53.406;6.214;2023-02-04T12:51:06;8.70;99.90
62339;DHT22;48368;53.406;6.214;2023-02-04T12:53:31;8.80;99.90
62339;DHT22;48368;53.406;6.214;2023-02-04T12:55:57;8.70;99.90
62339;DHT22;48368;53.406;6.214;2023-02-04T12:58:22;8.80;99.90
62339;DHT22;48368;53.406;6.214;2023-02-04T13:00:48;8.70;99.90
62339;DHT22;48368;53.406;6.214;2023-02-04T13:03:14;8.60;99.90
62339;DHT22;48368;53.406;6.214;2023-02-04T13:05:39;8.60;99.90
62339;DHT22;48368;53.406;6.214;2023-02-04T13:08:05;8.70;99.90
62339;DHT22;48368;53.406;6.214;2023-02-04T13:10:30;8.70;99.90
62339;DHT22;48368;53.406;6.214;2023-02-04T13:12:56;8.60;99.90
62339;DHT22;48368;53.406;6.214;2023-02-04T13:15:22;8.60;99.90
62339;DHT22;48368;53.406;6.214;2023-02-04T13:17:47;8.50;99.90
62339;DHT22;48368;53.406;6.214;2023-02-04T13:20:13;8.60;99.90
62339;DHT22;48368;53.406;6.214;2023-02-04T13:22:39;8.60;99.90
62339;DHT22;48368;53.406;6.214;2023-02-04T13:25:05;8.60;99.90
62339;DHT22;48368;53.406;6.214;2023-02-04T13:27:30;8.50;99.90
62339;DHT22;48368;53.406;6.214;2023-02-04T13:29:57;8.50;99.90
62339;DHT22;48368;53.406;6.214;2023-02-04T13:32:22;8.50;99.90
62339;DHT22;48368;53.406;6.214;2023-02-04T13:34:48;8.60;99.90
62339;DHT22;48368;53.406;6.214;2023-02-04T13:37:14;8.50;99.90
62339;DHT22;48368;53.406;6.214;2023-02-04T13:39:39;8.50;99.90
62339;DHT22;48368;53.406;6.214;2023-02-04T13:42:05;8.40;99.90
62339;DHT22;48368;53.406;6.214;2023-02-04T13:44:31;8.30;99.90
62339;DHT22;48368;53.406;6.214;2023-02-04T13:46:56;8.40;99.90
62339;DHT22;48368;53.406;6.214;2023-02-04T13:49:22;8.30;99.90
62339;DHT22;48368;53.406;6.214;2023-02-04T13:51:50;8.40;99.90
62339;DHT22;48368;53.406;6.214;2023-02-04T13:54:16;8.40;99.90
62339;DHT22;48368;53.406;6.214;2023-02-04T13:56:41;8.40;99.90
62339;DHT22;48368;53.406;6.214;2023-02-04T13:59:07;8.50;99.90
62339;DHT22;48368;53.406;6.214;2023-02-04T14:01:32;8.60;99.90
62339;DHT22;48368;53.406;6.214;2023-02-04T14:03:58;8.70;99.90
62339;DHT22;48368;53.406;6.214;2023-02-04T14:06:24;8.80;99.90
62339;DHT22;48368;53.406;6.214;2023-02-04T14:08:58;8.70;99.90
62339;DHT22;48368;53.406;6.214;2023-02-04T14:11:24;8.70;99.90
62339;DHT22;48368;53.406;6.214;2023-02-04T14:13:50;8.70;99.90
62339;DHT22;48368;53.406;6.214;2023-02-04T14:16:15;8.80;99.90
62339;DHT22;48368;53.406;6.214;2023-02-04T14:18:41;8.70;99.90
62339;DHT22;48368;53.406;6.214;2023-02-04T14:21:07;8.60;99.90
62339;DHT22;48368;53.406;6.214;2023-02-04T14:23:32;8.70;99.90
62339;DHT22;48368;53.406;6.214;2023-02-04T14:25:58;8.60;99.90
62339;DHT22;48368;53.406;6.214;2023-02-04T14:28:23;8.60;99.90
62339;DHT22;48368;53.406;6.214;2023-02-04T14:30:49;8.40;99.90
62339;DHT22;48368;53.406;6.214;2023-02-04T14:33:15;8.30;99.90
62339;DHT22;48368;53.406;6.214;2023-02-04T14:35:42;8.30;99.90
62339;DHT22;48368;53.406;6.214;2023-02-04T14:38:08;8.30;99.90
62339;DHT22;48368;53.406;6.214;2023-02-04T14:40:35;8.20;99.90
62339;DHT22;48368;53.406;6.214;2023-02-04T14:43:01;8.20;99.90
62339;DHT22;48368;53.406;6.214;2023-02-04T14:45:27;8.30;99.90
62339;DHT22;48368;53.406;6.214;2023-02-04T14:47:52;8.30;99.90
62339;DHT22;48368;53.406;6.214;2023-02-04T14:50:21;8.30;99.90
62339;DHT22;48368;53.406;6.214;2023-02-04T14:52:52;8.30;99.90
62339;DHT22;48368;53.406;6.214;2023-02-04T14:55:18;8.30;99.90
62339;DHT22;48368;53.406;6.214;2023-02-04T14:57:43;8.30;99.90
62339;DHT22;48368;53.406;6.214;2023-02-04T15:00:10;8.30;99.90
62339;DHT22;48368;53.406;6.214;2023-02-04T15:02:36;8.30;99.90
62339;DHT22;48368;53.406;6.214;2023-02-04T15:05:02;8.20;99.90
62339;DHT22;48368;53.406;6.214;2023-02-04T15:07:27;8.10;99.90
62339;DHT22;48368;53.406;6.214;2023-02-04T15:09:53;8.10;99.90
62339;DHT22;48368;53.406;6.214;2023-02-04T15:12:19;8.00;99.90
62339;DHT22;48368;53.406;6.214;2023-02-04T15:14:44;8.00;99.90
62339;DHT22;48368;53.406;6.214;2023-02-04T15:17:10;7.90;99.90
62339;DHT22;48368;53.406;6.214;2023-02-04T15:19:36;8.00;99.90
62339;DHT22;48368;53.406;6.214;2023-02-04T15:22:01;7.90;99.90
62339;DHT22;48368;53.406;6.214;2023-02-04T15:24:27;7.90;99.90
62339;DHT22;48368;53.406;6.214;2023-02-04T15:26:54;7.90;99.90
62339;DHT22;48368;53.406;6.214;2023-02-04T15:29:19;7.90;99.90
62339;DHT22;48368;53.406;6.214;2023-02-04T15:31:45;8.00;99.90
62339;DHT22;48368;53.406;6.214;2023-02-04T15:34:11;7.90;99.90
62339;DHT22;48368;53.406;6.214;2023-02-04T15:36:36;7.80;99.90
62339;DHT22;48368;53.406;6.214;2023-02-04T15:39:02;7.80;99.90
62339;DHT22;48368;53.406;6.214;2023-02-04T15:41:28;7.70;99.90
62339;DHT22;48368;53.406;6.214;2023-02-04T15:43:54;7.80;99.90
62339;DHT22;48368;53.406;6.214;2023-02-04T15:46:19;7.70;99.90
62339;DHT22;48368;53.406;6.214;2023-02-04T15:48:45;7.70;99.90
62339;DHT22;48368;53.406;6.214;2023-02-04T15:51:11;7.70;99.90
62339;DHT22;48368;53.406;6.214;2023-02-04T15:53:36;7.60;99.90
62339;DHT22;48368;53.406;6.214;2023-02-04T15:56:03;7.60;99.90
62339;DHT22;48368;53.406;6.214;2023-02-04T15:58:29;7.50;99.90
62339;DHT22;48368;53.406;6.214;2023-02-04T16:00:55;7.50;99.90